createdAt,value
2018-09-28T00:02:15.993Z,70.50
2018-09-28T00:04:43.793Z,69.90
2018-09-28T00:07:11.679Z,70.30
2018-09-28T00:09:39.437Z,70.10
2018-09-28T00:12:07.253Z,70.10
2018-09-28T00:14:35.028Z,70.00
2018-09-28T00:17:02.785Z,70.40
2018-09-28T00:19:30.569Z,70.30
2018-09-28T00:21:58.552Z,70.80
2018-09-28T00:24:26.337Z,70.80
2018-09-28T00:26:54.181Z,70.60
2018-09-28T00:29:22.109Z,70.80
2018-09-28T00:31:49.879Z,71.20
2018-09-28T00:34:17.652Z,72.00
2018-09-28T00:36:45.465Z,72.60
2018-09-28T00:39:13.279Z,72.40
2018-09-28T00:41:41.885Z,72.30
2018-09-28T00:44:09.708Z,71.60
2018-09-28T00:46:37.505Z,71.60
2018-09-28T00:49:05.276Z,71.50
2018-09-28T00:51:33.047Z,70.90
2018-09-28T00:54:00.811Z,70.80
2018-09-28T00:56:28.605Z,70.60
2018-09-28T00:58:56.437Z,72.00
2018-09-28T01:01:24.208Z,71.70
2018-09-28T01:03:52.608Z,71.20
2018-09-28T01:06:20.424Z,71.40
2018-09-28T01:08:48.249Z,71.70
2018-09-28T01:11:16.041Z,71.90
2018-09-28T01:13:43.829Z,71.60
2018-09-28T01:16:11.630Z,71.50
2018-09-28T01:18:39.420Z,71.70
2018-09-28T01:21:07.233Z,71.70
2018-09-28T01:23:35.049Z,71.40
2018-09-28T01:26:02.885Z,71.00
2018-09-28T01:28:30.753Z,70.40
2018-09-28T01:30:58.529Z,70.50
2018-09-28T01:33:26.294Z,70.30
2018-09-28T01:35:54.076Z,70.30
2018-09-28T01:38:22.088Z,70.30
2018-09-28T01:40:49.860Z,70.40
2018-09-28T01:43:17.639Z,70.10
2018-09-28T01:45:45.428Z,69.80
2018-09-28T01:48:13.239Z,70.20
2018-09-28T01:50:41.128Z,70.10
2018-09-28T01:53:08.901Z,69.80
2018-09-28T01:55:36.697Z,70.00
2018-09-28T01:58:04.733Z,70.80
2018-09-28T02:00:32.612Z,70.30
2018-09-28T02:03:00.537Z,69.80
2018-09-28T02:05:28.357Z,70.10
2018-09-28T02:07:56.152Z,69.80
2018-09-28T02:10:23.928Z,69.50
2018-09-28T02:12:52.005Z,69.50
2018-09-28T02:15:19.833Z,69.60
2018-09-28T02:17:47.605Z,69.40
2018-09-28T02:20:15.562Z,69.70
2018-09-28T02:22:43.365Z,69.50
2018-09-28T02:25:11.717Z,69.90
2018-09-28T02:27:39.598Z,70.40
2018-09-28T02:30:07.449Z,70.70
2018-09-28T02:32:35.316Z,70.40
2018-09-28T02:35:03.152Z,70.70
2018-09-28T02:37:30.915Z,70.50
2018-09-28T02:39:58.682Z,70.90
2018-09-28T02:42:26.456Z,71.70
2018-09-28T02:44:54.222Z,71.80
2018-09-28T02:47:22.040Z,72.20
2018-09-28T02:49:49.821Z,72.60
2018-09-28T02:52:17.607Z,72.40
2018-09-28T02:54:45.385Z,72.20
2018-09-28T02:57:13.234Z,72.00
2018-09-28T02:59:41.141Z,71.80
2018-09-28T03:02:08.948Z,71.20
2018-09-28T03:04:36.714Z,71.80
2018-09-28T03:07:05.668Z,71.00
2018-09-28T03:09:33.664Z,71.30
2018-09-28T03:12:01.417Z,71.80
2018-09-28T03:14:29.166Z,71.70
2018-09-28T03:16:56.952Z,71.10
2018-09-28T03:19:24.736Z,71.10
2018-09-28T03:21:53.274Z,71.50
2018-09-28T03:24:21.041Z,72.00
2018-09-28T03:26:48.792Z,71.70
2018-09-28T03:29:16.632Z,71.70
2018-09-28T03:31:44.449Z,72.20
2018-09-28T03:34:12.445Z,72.00
2018-09-28T03:36:40.305Z,71.80
2018-09-28T03:39:08.249Z,71.70
2018-09-28T03:41:36.077Z,71.50
2018-09-28T03:44:04.073Z,71.90
2018-09-28T03:46:31.817Z,71.70
2018-09-28T03:48:59.589Z,71.90
2018-09-28T03:51:27.333Z,72.40
2018-09-28T03:53:55.145Z,72.30
2018-09-28T03:56:22.965Z,72.60
2018-09-28T03:58:50.736Z,72.80
2018-09-28T04:01:18.496Z,73.10
2018-09-28T04:03:46.289Z,73.00
2018-09-28T04:06:14.148Z,73.10
2018-09-28T04:08:42.046Z,72.90
2018-09-28T04:11:09.934Z,72.80
2018-09-28T04:13:37.749Z,73.10
2018-09-28T04:16:05.501Z,72.70
2018-09-28T04:18:33.265Z,72.80
2018-09-28T04:21:02.444Z,72.50
2018-09-28T04:23:30.213Z,72.70
2018-09-28T04:25:57.998Z,72.80
2018-09-28T04:28:25.838Z,73.00
2018-09-28T04:30:53.629Z,73.50
2018-09-28T04:33:21.688Z,73.40
2018-09-28T04:35:49.449Z,73.70
2018-09-28T04:38:17.210Z,73.60
2018-09-28T04:40:45.017Z,73.70
2018-09-28T04:43:12.781Z,73.60
2018-09-28T04:45:40.977Z,73.50
2018-09-28T04:48:08.797Z,73.70
2018-09-28T04:50:36.597Z,73.70
2018-09-28T04:53:04.374Z,72.80
2018-09-28T04:55:32.245Z,72.90
2018-09-28T04:58:00.026Z,72.70
2018-09-28T05:00:27.785Z,72.40
2018-09-28T05:02:55.597Z,72.20
2018-09-28T05:05:23.365Z,72.80
2018-09-28T05:07:51.284Z,73.30
2018-09-28T05:10:19.096Z,73.20
2018-09-28T05:12:46.853Z,73.50
2018-09-28T05:15:14.650Z,74.00
2018-09-28T05:17:42.465Z,75.30
2018-09-28T05:20:10.375Z,74.80
2018-09-28T05:22:38.639Z,75.40
2018-09-28T05:25:06.782Z,75.50
2018-09-28T05:27:34.556Z,76.00
2018-09-28T05:30:02.354Z,75.60
2018-09-28T05:32:30.453Z,75.20
2018-09-28T05:34:58.132Z,75.40
2018-09-28T05:37:26.695Z,75.70
2018-09-28T05:39:54.481Z,76.40
2018-09-28T05:42:22.861Z,76.40
2018-09-28T05:44:50.693Z,76.30
2018-09-28T05:47:18.451Z,75.80
2018-09-28T05:49:46.306Z,76.50
2018-09-28T05:52:14.196Z,76.60
2018-09-28T05:54:42.263Z,76.60
2018-09-28T05:57:10.085Z,76.50
2018-09-28T05:59:43.437Z,76.40
2018-09-28T06:02:16.844Z,76.40
2018-09-28T06:04:50.265Z,76.20
2018-09-28T06:07:18.050Z,76.10
2018-09-28T06:09:45.877Z,75.40
2018-09-28T06:12:13.736Z,75.60
2018-09-28T06:14:41.702Z,75.20
2018-09-28T06:17:09.473Z,75.10
2018-09-28T06:19:37.263Z,73.40
2018-09-28T06:22:05.076Z,72.30
2018-09-28T06:24:32.884Z,70.80
2018-09-28T06:27:00.630Z,69.40
2018-09-28T06:29:28.398Z,67.70
2018-09-28T06:31:56.202Z,66.90
2018-09-28T06:34:23.970Z,66.10
2018-09-28T06:36:51.769Z,65.70
2018-09-28T06:39:19.650Z,65.50
2018-09-28T06:41:47.531Z,64.70
2018-09-28T06:44:15.322Z,64.80
2018-09-28T06:46:43.186Z,64.70
2018-09-28T06:49:11.412Z,64.50
2018-09-28T06:51:39.245Z,64.50
2018-09-28T06:54:07.173Z,64.00
2018-09-28T06:56:34.969Z,63.70
2018-09-28T06:59:02.762Z,63.30
2018-09-28T07:01:30.540Z,61.90
2018-09-28T07:03:59.042Z,60.60
2018-09-28T07:06:26.921Z,59.20
2018-09-28T07:08:54.870Z,58.50
2018-09-28T07:11:22.621Z,58.50
2018-09-28T07:13:50.405Z,57.40
2018-09-28T07:16:18.211Z,57.10
2018-09-28T07:18:45.978Z,56.50
2018-09-28T07:21:13.888Z,55.40
2018-09-28T07:23:41.890Z,52.70
2018-09-28T07:26:09.741Z,52.60
2018-09-28T07:28:37.669Z,51.90
2018-09-28T07:31:05.467Z,49.90
2018-09-28T07:33:33.338Z,48.60
2018-09-28T07:36:01.152Z,47.30
2018-09-28T07:38:28.941Z,47.40
2018-09-28T07:40:56.708Z,44.70
2018-09-28T07:43:24.494Z,44.40
2018-09-28T07:45:52.289Z,44.60
2018-09-28T07:48:20.067Z,44.80
2018-09-28T07:50:47.849Z,43.90
2018-09-28T07:53:15.709Z,43.30
2018-09-28T07:55:43.710Z,42.60
2018-09-28T07:58:11.553Z,40.70
2018-09-28T08:00:39.377Z,39.40
2018-09-28T08:03:07.242Z,39.40
2018-09-28T08:05:35.037Z,38.20
2018-09-28T08:08:02.844Z,38.40
2018-09-28T08:10:30.657Z,38.20
2018-09-28T08:12:58.457Z,37.80
2018-09-28T08:15:26.226Z,37.90
2018-09-28T08:17:54.881Z,38.80
2018-09-28T08:20:22.654Z,37.60
2018-09-28T08:22:50.434Z,38.30
2018-09-28T08:25:18.269Z,38.80
2018-09-28T08:27:46.060Z,38.00
2018-09-28T08:30:13.985Z,36.50
2018-09-28T08:32:41.866Z,37.90
2018-09-28T08:35:09.661Z,37.70
2018-09-28T08:37:37.453Z,38.70
2018-09-28T08:40:05.241Z,38.50
2018-09-28T08:42:33.025Z,39.70
2018-09-28T08:45:00.817Z,38.80
2018-09-28T08:47:28.602Z,39.70
2018-09-28T08:49:56.403Z,39.50
2018-09-28T08:52:24.172Z,38.30
2018-09-28T08:54:52.045Z,38.70
2018-09-28T08:57:19.857Z,37.90
2018-09-28T08:59:47.642Z,35.90
2018-09-28T09:02:15.545Z,35.20
2018-09-28T09:04:43.480Z,33.70
2018-09-28T09:07:11.321Z,35.30
2018-09-28T09:09:39.085Z,36.40
2018-09-28T09:12:06.869Z,34.80
2018-09-28T09:14:34.700Z,35.30
2018-09-28T09:17:02.489Z,35.80
2018-09-28T09:19:30.316Z,34.80
2018-09-28T09:21:58.121Z,35.10
2018-09-28T09:24:25.936Z,34.40
2018-09-28T09:26:54.191Z,33.30
2018-09-28T09:29:21.976Z,34.20
2018-09-28T09:31:49.777Z,33.10
2018-09-28T09:34:17.801Z,32.10
2018-09-28T09:36:45.897Z,32.30
2018-09-28T09:39:13.828Z,32.40
2018-09-28T09:41:41.877Z,33.70
2018-09-28T09:44:09.736Z,34.00
2018-09-28T09:46:37.709Z,34.50
2018-09-28T09:49:05.641Z,34.80
2018-09-28T09:51:33.492Z,33.70
2018-09-28T09:54:01.303Z,33.60
2018-09-28T09:56:29.087Z,33.80
2018-09-28T09:58:56.897Z,33.00
2018-09-28T10:01:30.193Z,31.70
2018-09-28T10:04:02.524Z,31.80
2018-09-28T10:06:30.333Z,32.50
2018-09-28T10:08:58.121Z,32.30
2018-09-28T10:11:25.991Z,33.20
2018-09-28T10:13:53.805Z,33.80
2018-09-28T10:16:21.605Z,33.30
2018-09-28T10:18:49.409Z,32.70
2018-09-28T10:21:17.382Z,32.40
2018-09-28T10:23:45.268Z,32.70
2018-09-28T10:26:13.121Z,32.90
2018-09-28T10:28:40.973Z,32.40
2018-09-28T10:31:08.754Z,30.70
2018-09-28T10:33:36.616Z,30.70
2018-09-28T10:36:04.447Z,30.70
2018-09-28T10:38:32.208Z,30.90
2018-09-28T10:41:00.069Z,30.90
2018-09-28T10:43:28.261Z,31.60
2018-09-28T10:45:56.114Z,30.70
2018-09-28T10:48:23.929Z,30.00
2018-09-28T10:50:51.804Z,30.50
2018-09-28T10:53:19.593Z,29.60
2018-09-28T10:55:47.413Z,28.00
2018-09-28T10:58:15.282Z,28.60
2018-09-28T11:00:43.191Z,27.80
2018-09-28T11:03:11.060Z,28.70
2018-09-28T11:05:39.817Z,29.30
2018-09-28T11:08:07.633Z,27.20
2018-09-28T11:10:35.418Z,27.10
2018-09-28T11:13:03.280Z,27.50
2018-09-28T11:15:31.077Z,27.50
2018-09-28T11:17:58.913Z,27.40
2018-09-28T11:20:26.729Z,27.40
2018-09-28T11:22:54.506Z,27.50
2018-09-28T11:25:22.318Z,26.70
2018-09-28T11:27:50.157Z,27.30
2018-09-28T11:30:18.002Z,26.10
2018-09-28T11:32:45.868Z,25.40
2018-09-28T11:35:13.729Z,26.00
2018-09-28T11:37:41.590Z,26.40
2018-09-28T11:40:09.432Z,25.10
2018-09-28T11:42:37.241Z,26.70
2018-09-28T11:45:05.111Z,26.20
2018-09-28T11:47:32.964Z,25.00
2018-09-28T11:50:00.756Z,25.70
2018-09-28T11:52:28.573Z,26.10
2018-09-28T11:54:56.361Z,25.40
2018-09-28T11:57:24.249Z,25.00
2018-09-28T11:59:52.073Z,25.20
2018-09-28T12:02:19.869Z,25.80
2018-09-28T12:04:47.713Z,25.30
2018-09-28T12:07:15.627Z,25.60
2018-09-28T12:09:43.539Z,25.40
2018-09-28T12:12:11.373Z,25.90
2018-09-28T12:14:39.174Z,26.00
2018-09-28T12:17:07.000Z,25.60
2018-09-28T12:19:34.915Z,25.50
2018-09-28T12:22:02.741Z,24.60
2018-09-28T12:24:30.561Z,24.80
2018-09-28T12:26:58.345Z,25.70
2018-09-28T12:29:26.402Z,25.30
2018-09-28T12:31:54.190Z,24.80
2018-09-28T12:34:22.128Z,25.20
2018-09-28T12:36:50.022Z,24.30
2018-09-28T12:39:18.038Z,24.40
2018-09-28T12:41:45.814Z,24.60
2018-09-28T12:44:13.693Z,24.40
2018-09-28T12:46:41.517Z,24.90
2018-09-28T12:49:09.304Z,25.00
2018-09-28T12:51:37.253Z,24.00
2018-09-28T12:54:09.581Z,24.70
2018-09-28T12:56:37.765Z,24.60
2018-09-28T12:59:05.745Z,24.60
2018-09-28T13:01:33.581Z,24.00
2018-09-28T13:04:01.853Z,23.50
2018-09-28T13:06:29.742Z,23.60
2018-09-28T13:08:57.573Z,23.30
2018-09-28T13:11:25.341Z,23.30
2018-09-28T13:13:53.190Z,23.50
2018-09-28T13:16:20.997Z,23.40
2018-09-28T13:18:48.961Z,23.20
2018-09-28T13:21:16.901Z,22.80
2018-09-28T13:23:44.873Z,22.70
2018-09-28T13:26:12.733Z,22.10
2018-09-28T13:28:40.637Z,22.50
2018-09-28T13:31:08.672Z,22.80
2018-09-28T13:33:37.837Z,23.50
2018-09-28T13:36:09.594Z,23.90
2018-09-28T13:38:37.669Z,22.80
2018-09-28T13:41:05.602Z,23.30
2018-09-28T13:43:33.418Z,22.60
2018-09-28T13:46:01.460Z,23.10
2018-09-28T13:48:30.490Z,22.30
2018-09-28T13:50:58.369Z,22.70
2018-09-28T13:53:26.157Z,24.20
2018-09-28T13:55:53.960Z,22.80
2018-09-28T13:58:21.787Z,23.40
2018-09-28T14:00:49.739Z,22.90
2018-09-28T14:03:17.718Z,23.20
2018-09-28T14:05:45.701Z,22.60
2018-09-28T14:08:13.526Z,22.70
2018-09-28T14:10:41.954Z,22.20
2018-09-28T14:13:10.056Z,21.60
2018-09-28T14:15:37.968Z,21.00
2018-09-28T14:18:05.829Z,21.00
2018-09-28T14:20:33.724Z,22.40
2018-09-28T14:23:01.527Z,22.20
2018-09-28T14:25:29.361Z,22.50
2018-09-28T14:27:57.180Z,22.70
2018-09-28T14:30:25.073Z,23.20
2018-09-28T14:32:52.888Z,21.90
2018-09-28T14:35:20.768Z,21.60
2018-09-28T14:37:48.585Z,22.00
2018-09-28T14:40:16.439Z,22.70
2018-09-28T14:42:44.320Z,22.90
2018-09-28T14:45:12.211Z,22.50
2018-09-28T14:47:39.981Z,22.20
2018-09-28T14:50:07.829Z,22.80
2018-09-28T14:52:35.676Z,23.40
2018-09-28T14:55:03.770Z,23.50
2018-09-28T14:57:31.578Z,22.50
2018-09-28T14:59:59.460Z,22.00
2018-09-28T15:02:27.305Z,22.30
2018-09-28T15:04:55.121Z,22.20
2018-09-28T15:07:23.000Z,22.50
2018-09-28T15:09:50.801Z,23.70
2018-09-28T15:12:18.843Z,23.10
2018-09-28T15:14:46.656Z,23.40
2018-09-28T15:17:14.527Z,23.80
2018-09-28T15:19:42.387Z,24.10
2018-09-28T15:22:10.217Z,23.90
2018-09-28T15:24:38.089Z,24.70
2018-09-28T15:27:05.893Z,24.40
2018-09-28T15:29:33.997Z,24.70
2018-09-28T15:32:01.779Z,24.80
2018-09-28T15:34:30.333Z,24.90
2018-09-28T15:36:58.178Z,25.20
2018-09-28T15:39:26.021Z,25.50
2018-09-28T15:41:53.834Z,26.00
2018-09-28T15:44:21.687Z,26.10
2018-09-28T15:46:49.545Z,26.30
2018-09-28T15:49:18.249Z,27.10
2018-09-28T15:51:46.307Z,27.30
2018-09-28T15:54:14.173Z,27.60
2018-09-28T15:56:42.022Z,28.50
2018-09-28T15:59:09.773Z,28.40
2018-09-28T16:01:37.621Z,28.90
2018-09-28T16:04:05.481Z,29.70
2018-09-28T16:06:33.368Z,30.30
2018-09-28T16:09:01.221Z,30.10
2018-09-28T16:11:29.058Z,31.20
2018-09-28T16:13:56.904Z,31.40
2018-09-28T16:16:24.780Z,31.30
2018-09-28T16:18:52.543Z,31.60
2018-09-28T16:21:20.381Z,32.00
2018-09-28T16:23:48.225Z,32.30
2018-09-28T16:26:16.113Z,33.00
2018-09-28T16:28:43.911Z,33.20
2018-09-28T16:31:11.868Z,34.00
2018-09-28T16:33:39.709Z,35.50
2018-09-28T16:36:07.643Z,36.10
2018-09-28T16:38:36.033Z,36.50
2018-09-28T16:41:03.887Z,36.80
2018-09-28T16:43:32.053Z,36.70
2018-09-28T16:45:59.868Z,37.50
2018-09-28T16:48:27.697Z,37.90
2018-09-28T16:50:55.480Z,38.50
2018-09-28T16:53:23.285Z,39.30
2018-09-28T16:55:52.639Z,39.70
2018-09-28T16:58:20.593Z,40.50
2018-09-28T17:00:48.611Z,41.30
2018-09-28T17:03:16.590Z,42.00
2018-09-28T17:05:44.506Z,42.70
2018-09-28T17:08:12.409Z,43.90
2018-09-28T17:10:40.369Z,44.80
2018-09-28T17:13:08.297Z,46.00
2018-09-28T17:15:36.180Z,47.00
2018-09-28T17:18:04.095Z,48.20
2018-09-28T17:20:32.022Z,49.30
2018-09-28T17:22:59.945Z,49.80
2018-09-28T17:25:27.979Z,50.00
2018-09-28T17:30:29.334Z,50.70
2018-09-28T17:32:57.171Z,51.30
2018-09-28T17:35:24.988Z,52.10
2018-09-28T17:37:52.805Z,52.50
2018-09-28T17:40:20.653Z,52.60
2018-09-28T17:42:53.937Z,52.90
2018-09-28T17:45:21.901Z,53.70
2018-09-28T17:47:49.726Z,54.20
2018-09-28T17:50:17.821Z,54.70
2018-09-28T17:52:45.674Z,54.90
2018-09-28T17:55:13.502Z,55.10
2018-09-28T18:00:19.126Z,56.90
2018-09-28T18:02:46.953Z,56.90
2018-09-28T18:05:14.791Z,56.90
2018-09-28T18:07:42.646Z,57.10
2018-09-28T18:10:10.433Z,57.10
2018-09-28T18:12:40.764Z,56.70
2018-09-28T18:15:08.601Z,56.80
2018-09-28T18:17:36.441Z,57.30
2018-09-28T18:20:04.553Z,57.70
2018-09-28T18:22:32.357Z,58.20
2018-09-28T18:25:00.144Z,58.20
2018-09-28T18:27:27.985Z,58.50
2018-09-28T18:29:55.769Z,58.70
2018-09-28T18:32:23.581Z,58.80
2018-09-28T18:34:51.553Z,59.00
2018-09-28T18:37:19.448Z,59.50
2018-09-28T18:39:47.709Z,58.90
2018-09-28T18:42:15.628Z,58.60
2018-09-28T18:44:45.596Z,58.80
2018-09-28T18:47:13.429Z,58.70
2018-09-28T18:49:41.385Z,58.30
2018-09-28T18:52:09.209Z,57.90
2018-09-28T18:54:36.980Z,57.70
2018-09-28T18:57:04.836Z,57.90
2018-09-28T18:59:32.638Z,56.60
2018-09-28T19:02:00.493Z,56.30
2018-09-28T19:04:28.313Z,56.40
2018-09-28T19:06:56.105Z,57.10
2018-09-28T19:09:23.867Z,57.50
2018-09-28T19:11:51.717Z,57.20
2018-09-28T19:14:19.560Z,56.40
2018-09-28T19:16:47.433Z,54.10
2018-09-28T19:19:15.236Z,53.20
2018-09-28T19:21:43.190Z,53.10
2018-09-28T19:24:10.952Z,52.60
2018-09-28T19:26:38.739Z,51.10
2018-09-28T19:29:06.507Z,50.70
2018-09-28T19:31:34.358Z,50.40
2018-09-28T19:34:02.188Z,49.70
2018-09-28T19:36:29.992Z,50.20
2018-09-28T19:38:57.817Z,49.90
2018-09-28T19:41:25.641Z,49.70
2018-09-28T19:43:55.703Z,48.80
2018-09-28T19:46:23.616Z,48.20
2018-09-28T19:48:52.093Z,47.80
2018-09-28T19:51:20.041Z,47.80
2018-09-28T19:53:47.944Z,46.70
2018-09-28T19:56:15.713Z,47.20
2018-09-28T19:58:43.493Z,47.50
2018-09-28T20:01:11.277Z,47.30
2018-09-28T20:03:39.109Z,47.40
2018-09-28T20:06:07.295Z,47.40
2018-09-28T20:08:35.185Z,47.50
2018-09-28T20:11:03.005Z,47.00
2018-09-28T20:13:30.836Z,46.60
2018-09-28T20:15:58.673Z,47.00
2018-09-28T20:18:26.569Z,47.30
2018-09-28T20:20:54.453Z,47.00
2018-09-28T20:23:22.394Z,46.40
2018-09-28T20:25:50.247Z,46.40
2018-09-28T20:28:18.077Z,46.10
2018-09-28T20:30:45.873Z,44.50
2018-09-28T20:33:13.706Z,45.60
2018-09-28T20:35:41.582Z,46.80
2018-09-28T20:38:09.468Z,47.40
2018-09-28T20:40:37.242Z,47.70
2018-09-28T20:43:05.066Z,48.20
2018-09-28T20:45:32.858Z,48.70
2018-09-28T20:48:00.633Z,49.30
2018-09-28T20:50:28.390Z,49.10
2018-09-28T20:52:56.184Z,49.40
2018-09-28T20:55:24.210Z,49.60
2018-09-28T20:57:52.103Z,48.90
2018-09-28T21:00:20.169Z,49.10
2018-09-28T21:02:48.177Z,49.00
2018-09-28T21:05:16.174Z,49.40
2018-09-28T21:07:44.032Z,49.20
2018-09-28T21:10:11.884Z,49.20
2018-09-28T21:12:39.880Z,49.60
2018-09-28T21:15:07.713Z,49.70
2018-09-28T21:17:35.573Z,49.40
2018-09-28T21:20:03.672Z,49.20
2018-09-28T21:22:31.700Z,49.10
2018-09-28T21:25:00.418Z,49.30
2018-09-28T21:27:28.391Z,49.20
2018-09-28T21:29:56.337Z,49.80
2018-09-28T21:32:24.163Z,49.70
2018-09-28T21:34:51.996Z,49.80
2018-09-28T21:37:20.049Z,49.40
2018-09-28T21:39:47.890Z,49.70
2018-09-28T21:42:15.719Z,49.90
2018-09-28T21:44:43.508Z,50.00
2018-09-28T21:47:11.325Z,50.50
2018-09-28T21:49:42.728Z,51.10
2018-09-28T21:52:10.503Z,51.40
2018-09-28T21:54:38.497Z,51.50
2018-09-28T21:57:06.321Z,51.80
2018-09-28T21:59:34.211Z,51.80
2018-09-28T22:02:02.077Z,52.00
2018-09-28T22:04:30.025Z,51.80
2018-09-28T22:06:57.883Z,51.80
2018-09-28T22:09:25.718Z,52.00
2018-09-28T22:11:53.501Z,52.50
2018-09-28T22:14:21.257Z,51.80
2018-09-28T22:16:49.132Z,51.90
2018-09-28T22:19:16.920Z,52.00
2018-09-28T22:21:46.452Z,52.10
2018-09-28T22:24:14.234Z,51.80
2018-09-28T22:26:42.118Z,51.90
2018-09-28T22:29:09.916Z,52.10
2018-09-28T22:31:37.713Z,52.20
2018-09-28T22:34:05.593Z,52.40
2018-09-28T22:36:33.414Z,52.30
2018-09-28T22:39:01.241Z,52.60
2018-09-28T22:41:28.990Z,52.60
2018-09-28T22:43:56.829Z,52.70
2018-09-28T22:46:24.608Z,53.20
2018-09-28T22:48:52.400Z,52.90
2018-09-28T22:51:20.178Z,52.80
2018-09-28T22:53:47.972Z,53.00
2018-09-28T22:56:15.746Z,53.20
2018-09-28T22:58:43.530Z,53.40
2018-09-28T23:01:11.333Z,53.50
2018-09-28T23:03:39.082Z,53.30
2018-09-28T23:06:06.922Z,53.50
2018-09-28T23:08:34.721Z,53.90
2018-09-28T23:11:02.526Z,53.80
2018-09-28T23:13:30.289Z,53.60
2018-09-28T23:15:58.104Z,53.50
2018-09-28T23:18:25.949Z,53.70
2018-09-28T23:20:53.685Z,54.00
2018-09-28T23:23:21.502Z,54.00
2018-09-28T23:25:49.402Z,54.20
2018-09-28T23:28:17.182Z,54.20
2018-09-28T23:30:44.965Z,54.40
2018-09-28T23:33:12.725Z,54.70
2018-09-28T23:35:40.485Z,54.30
2018-09-28T23:38:08.271Z,54.50
2018-09-28T23:40:36.040Z,54.90
2018-09-28T23:43:03.839Z,54.30
2018-09-28T23:45:31.634Z,54.60
2018-09-28T23:47:59.406Z,55.00
2018-09-28T23:50:27.203Z,55.00
2018-09-28T23:52:55.025Z,54.90
2018-09-28T23:55:22.870Z,55.20
2018-09-28T23:57:50.712Z,55.50
